sensor_id;sensor_type;location;lat;lon;timestamp;temperature;humidity
12841;DHT22;6487;48.626;12.486;2023-05-29T00:00:06;15.00;94.60
12841;DHT22;6487;48.626;12.486;2023-05-29T00:02:35;14.90;94.40
12841;DHT22;6487;48.626;12.486;2023-05-29T00:05:04;15.00;94.50
12841;DHT22;6487;48.626;12.486;2023-05-29T00:07:33;15.00;94.60
12841;DHT22;6487;48.626;12.486;2023-05-29T00:10:03;14.90;94.80
12841;DHT22;6487;48.626;12.486;2023-05-29T00:12:32;14.90;94.80
12841;DHT22;6487;48.626;12.486;2023-05-29T00:15:01;14.80;94.80
12841;DHT22;6487;48.626;12.486;2023-05-29T00:17:30;14.80;95.10
12841;DHT22;6487;48.626;12.486;2023-05-29T00:20:00;14.70;95.00
12841;DHT22;6487;48.626;12.486;2023-05-29T00:22:31;14.60;95.10
12841;DHT22;6487;48.626;12.486;2023-05-29T00:24:59;14.60;95.30
12841;DHT22;6487;48.626;12.486;2023-05-29T00:27:29;14.60;95.40
12841;DHT22;6487;48.626;12.486;2023-05-29T00:30:00;14.50;95.40
12841;DHT22;6487;48.626;12.486;2023-05-29T00:32:29;14.50;95.80
12841;DHT22;6487;48.626;12.486;2023-05-29T00:34:58;14.50;95.70
12841;DHT22;6487;48.626;12.486;2023-05-29T00:37:26;14.50;95.50
12841;DHT22;6487;48.626;12.486;2023-05-29T00:40:02;14.50;95.50
12841;DHT22;6487;48.626;12.486;2023-05-29T00:42:36;14.50;95.50
12841;DHT22;6487;48.626;12.486;2023-05-29T00:45:05;14.50;95.50
12841;DHT22;6487;48.626;12.486;2023-05-29T00:47:35;14.50;95.60
12841;DHT22;6487;48.626;12.486;2023-05-29T00:50:04;14.30;95.70
12841;DHT22;6487;48.626;12.486;2023-05-29T00:52:33;14.30;95.80
12841;DHT22;6487;48.626;12.486;2023-05-29T00:55:01;14.30;95.60
12841;DHT22;6487;48.626;12.486;2023-05-29T00:57:31;14.30;95.80
12841;DHT22;6487;48.626;12.486;2023-05-29T01:00:02;14.20;95.70
12841;DHT22;6487;48.626;12.486;2023-05-29T01:02:35;14.20;96.40
12841;DHT22;6487;48.626;12.486;2023-05-29T01:05:04;14.20;95.90
12841;DHT22;6487;48.626;12.486;2023-05-29T01:07:33;14.10;95.70
12841;DHT22;6487;48.626;12.486;2023-05-29T01:10:02;14.10;95.70
12841;DHT22;6487;48.626;12.486;2023-05-29T01:12:36;14.00;96.30
12841;DHT22;6487;48.626;12.486;2023-05-29T01:15:17;13.90;96.10
12841;DHT22;6487;48.626;12.486;2023-05-29T01:18:08;13.90;96.00
12841;DHT22;6487;48.626;12.486;2023-05-29T01:20:48;13.90;96.40
12841;DHT22;6487;48.626;12.486;2023-05-29T01:23:40;13.80;96.30
12841;DHT22;6487;48.626;12.486;2023-05-29T01:26:48;13.80;96.40
12841;DHT22;6487;48.626;12.486;2023-05-29T01:29:21;13.70;96.50
12841;DHT22;6487;48.626;12.486;2023-05-29T01:31:52;13.60;96.30
12841;DHT22;6487;48.626;12.486;2023-05-29T01:34:20;13.60;96.40
12841;DHT22;6487;48.626;12.486;2023-05-29T01:36:49;13.60;96.40
12841;DHT22;6487;48.626;12.486;2023-05-29T01:39:18;13.50;96.50
12841;DHT22;6487;48.626;12.486;2023-05-29T01:41:52;13.50;96.50
12841;DHT22;6487;48.626;12.486;2023-05-29T01:44:21;13.50;96.40
12841;DHT22;6487;48.626;12.486;2023-05-29T01:46:51;13.50;96.40
12841;DHT22;6487;48.626;12.486;2023-05-29T01:49:20;13.50;96.40
12841;DHT22;6487;48.626;12.486;2023-05-29T01:51:51;13.40;96.80
12841;DHT22;6487;48.626;12.486;2023-05-29T01:54:22;13.40;97.20
12841;DHT22;6487;48.626;12.486;2023-05-29T01:56:52;13.30;97.00
12841;DHT22;6487;48.626;12.486;2023-05-29T01:59:25;13.20;96.90
12841;DHT22;6487;48.626;12.486;2023-05-29T02:01:53;13.20;96.90
12841;DHT22;6487;48.626;12.486;2023-05-29T02:04:22;13.20;96.90
12841;DHT22;6487;48.626;12.486;2023-05-29T02:06:50;13.20;96.90
12841;DHT22;6487;48.626;12.486;2023-05-29T02:09:21;13.20;96.90
12841;DHT22;6487;48.626;12.486;2023-05-29T02:11:53;13.20;97.20
12841;DHT22;6487;48.626;12.486;2023-05-29T02:14:22;13.20;97.20
12841;DHT22;6487;48.626;12.486;2023-05-29T02:16:51;13.20;97.30
12841;DHT22;6487;48.626;12.486;2023-05-29T02:19:19;13.10;97.30
12841;DHT22;6487;48.626;12.486;2023-05-29T02:21:48;13.10;97.20
12841;DHT22;6487;48.626;12.486;2023-05-29T02:24:16;13.10;97.40
12841;DHT22;6487;48.626;12.486;2023-05-29T02:26:47;13.00;97.30
12841;DHT22;6487;48.626;12.486;2023-05-29T02:29:18;13.00;97.50
12841;DHT22;6487;48.626;12.486;2023-05-29T02:31:47;13.00;97.50
12841;DHT22;6487;48.626;12.486;2023-05-29T02:34:15;13.00;97.50
12841;DHT22;6487;48.626;12.486;2023-05-29T02:36:44;13.00;97.40
12841;DHT22;6487;48.626;12.486;2023-05-29T02:39:12;13.00;97.30
12841;DHT22;6487;48.626;12.486;2023-05-29T02:41:40;13.00;97.70
12841;DHT22;6487;48.626;12.486;2023-05-29T02:44:09;12.90;97.80
12841;DHT22;6487;48.626;12.486;2023-05-29T02:46:38;12.80;97.60
12841;DHT22;6487;48.626;12.486;2023-05-29T02:49:07;12.80;97.70
12841;DHT22;6487;48.626;12.486;2023-05-29T02:51:35;12.70;98.20
12841;DHT22;6487;48.626;12.486;2023-05-29T02:54:04;12.70;97.90
12841;DHT22;6487;48.626;12.486;2023-05-29T02:56:32;12.80;98.00
12841;DHT22;6487;48.626;12.486;2023-05-29T02:59:01;12.80;97.90
12841;DHT22;6487;48.626;12.486;2023-05-29T03:01:29;12.70;98.00
12841;DHT22;6487;48.626;12.486;2023-05-29T03:04:01;12.70;97.80
12841;DHT22;6487;48.626;12.486;2023-05-29T03:06:29;12.70;98.00
12841;DHT22;6487;48.626;12.486;2023-05-29T03:08:59;12.60;98.00
12841;DHT22;6487;48.626;12.486;2023-05-29T03:11:27;12.60;98.00
12841;DHT22;6487;48.626;12.486;2023-05-29T03:13:59;12.60;98.00
12841;DHT22;6487;48.626;12.486;2023-05-29T03:16:27;12.50;98.40
12841;DHT22;6487;48.626;12.486;2023-05-29T03:18:56;12.40;98.60
12841;DHT22;6487;48.626;12.486;2023-05-29T03:21:26;12.30;98.80
12841;DHT22;6487;48.626;12.486;2023-05-29T03:23:58;12.30;98.40
12841;DHT22;6487;48.626;12.486;2023-05-29T03:26:26;12.30;98.10
12841;DHT22;6487;48.626;12.486;2023-05-29T03:28:55;12.40;98.20
12841;DHT22;6487;48.626;12.486;2023-05-29T03:31:23;12.30;98.50
12841;DHT22;6487;48.626;12.486;2023-05-29T03:33:54;12.30;98.50
12841;DHT22;6487;48.626;12.486;2023-05-29T03:36:23;12.30;98.20
12841;DHT22;6487;48.626;12.486;2023-05-29T03:38:53;12.40;98.40
12841;DHT22;6487;48.626;12.486;2023-05-29T03:41:21;12.30;98.60
12841;DHT22;6487;48.626;12.486;2023-05-29T03:43:49;12.30;98.70
12841;DHT22;6487;48.626;12.486;2023-05-29T03:46:18;12.30;99.30
12841;DHT22;6487;48.626;12.486;2023-05-29T03:48:46;12.30;99.20
12841;DHT22;6487;48.626;12.486;2023-05-29T03:51:15;12.20;99.30
12841;DHT22;6487;48.626;12.486;2023-05-29T03:53:43;12.20;99.40
12841;DHT22;6487;48.626;12.486;2023-05-29T03:56:13;12.30;99.10
12841;DHT22;6487;48.626;12.486;2023-05-29T03:58:44;12.30;99.60
12841;DHT22;6487;48.626;12.486;2023-05-29T04:01:13;12.30;99.30
12841;DHT22;6487;48.626;12.486;2023-05-29T04:03:41;12.30;99.50
12841;DHT22;6487;48.626;12.486;2023-05-29T04:06:11;12.30;99.20
12841;DHT22;6487;48.626;12.486;2023-05-29T04:08:39;12.30;99.30
12841;DHT22;6487;48.626;12.486;2023-05-29T04:11:08;12.30;99.50
12841;DHT22;6487;48.626;12.486;2023-05-29T04:13:41;12.30;99.30
12841;DHT22;6487;48.626;12.486;2023-05-29T04:16:10;12.40;99.50
12841;DHT22;6487;48.626;12.486;2023-05-29T04:18:41;12.30;99.80
12841;DHT22;6487;48.626;12.486;2023-05-29T04:21:10;12.30;99.40
12841;DHT22;6487;48.626;12.486;2023-05-29T04:23:38;12.30;99.50
12841;DHT22;6487;48.626;12.486;2023-05-29T04:26:07;12.20;99.70
12841;DHT22;6487;48.626;12.486;2023-05-29T04:28:35;12.20;99.90
12841;DHT22;6487;48.626;12.486;2023-05-29T04:31:06;12.30;99.60
12841;DHT22;6487;48.626;12.486;2023-05-29T04:33:34;12.40;99.90
12841;DHT22;6487;48.626;12.486;2023-05-29T04:36:08;12.40;99.90
12841;DHT22;6487;48.626;12.486;2023-05-29T04:38:37;12.50;99.90
12841;DHT22;6487;48.626;12.486;2023-05-29T04:41:06;12.60;99.80
12841;DHT22;6487;48.626;12.486;2023-05-29T04:43:40;12.60;99.90
12841;DHT22;6487;48.626;12.486;2023-05-29T04:46:10;12.60;99.90
12841;DHT22;6487;48.626;12.486;2023-05-29T04:48:39;12.70;99.90
12841;DHT22;6487;48.626;12.486;2023-05-29T04:51:08;12.80;99.90
12841;DHT22;6487;48.626;12.486;2023-05-29T04:53:38;12.80;99.90
12841;DHT22;6487;48.626;12.486;2023-05-29T04:56:08;12.70;99.90
12841;DHT22;6487;48.626;12.486;2023-05-29T04:58:40;12.80;99.90
12841;DHT22;6487;48.626;12.486;2023-05-29T05:01:11;12.80;99.90
12841;DHT22;6487;48.626;12.486;2023-05-29T05:03:41;12.90;99.90
12841;DHT22;6487;48.626;12.486;2023-05-29T05:06:09;13.00;99.90
12841;DHT22;6487;48.626;12.486;2023-05-29T05:08:39;13.10;99.90
12841;DHT22;6487;48.626;12.486;2023-05-29T05:11:07;13.10;99.90
12841;DHT22;6487;48.626;12.486;2023-05-29T05:13:36;13.20;99.90
12841;DHT22;6487;48.626;12.486;2023-05-29T05:16:05;13.20;99.90
12841;DHT22;6487;48.626;12.486;2023-05-29T05:18:35;13.20;99.90
12841;DHT22;6487;48.626;12.486;2023-05-29T05:21:06;13.30;99.90
12841;DHT22;6487;48.626;12.486;2023-05-29T05:23:35;13.40;99.90
12841;DHT22;6487;48.626;12.486;2023-05-29T05:26:23;13.50;99.90
12841;DHT22;6487;48.626;12.486;2023-05-29T05:28:53;13.60;99.90
12841;DHT22;6487;48.626;12.486;2023-05-29T05:31:22;13.60;99.90
12841;DHT22;6487;48.626;12.486;2023-05-29T05:33:52;13.60;99.90
12841;DHT22;6487;48.626;12.486;2023-05-29T05:36:21;13.70;99.90
12841;DHT22;6487;48.626;12.486;2023-05-29T05:38:49;13.80;99.90
12841;DHT22;6487;48.626;12.486;2023-05-29T05:41:17;13.90;99.90
12841;DHT22;6487;48.626;12.486;2023-05-29T05:43:47;14.00;99.90
12841;DHT22;6487;48.626;12.486;2023-05-29T05:46:16;14.10;99.30
12841;DHT22;6487;48.626;12.486;2023-05-29T05:48:45;14.20;99.60
12841;DHT22;6487;48.626;12.486;2023-05-29T05:51:15;14.30;99.90
12841;DHT22;6487;48.626;12.486;2023-05-29T05:53:46;14.30;99.90
12841;DHT22;6487;48.626;12.486;2023-05-29T05:56:20;14.40;99.90
12841;DHT22;6487;48.626;12.486;2023-05-29T05:58:48;14.40;99.90
12841;DHT22;6487;48.626;12.486;2023-05-29T06:01:16;14.50;99.90
12841;DHT22;6487;48.626;12.486;2023-05-29T06:03:45;14.70;99.90
12841;DHT22;6487;48.626;12.486;2023-05-29T06:06:15;14.80;99.90
12841;DHT22;6487;48.626;12.486;2023-05-29T06:08:46;14.90;99.90
12841;DHT22;6487;48.626;12.486;2023-05-29T06:11:18;15.10;99.90
12841;DHT22;6487;48.626;12.486;2023-05-29T06:13:50;15.20;99.90
12841;DHT22;6487;48.626;12.486;2023-05-29T06:16:18;15.40;99.90
12841;DHT22;6487;48.626;12.486;2023-05-29T06:18:47;15.60;99.50
12841;DHT22;6487;48.626;12.486;2023-05-29T06:21:17;15.80;99.20
12841;DHT22;6487;48.626;12.486;2023-05-29T06:23:46;15.90;99.10
12841;DHT22;6487;48.626;12.486;2023-05-29T06:26:14;16.10;98.90
12841;DHT22;6487;48.626;12.486;2023-05-29T06:28:43;16.30;98.70
12841;DHT22;6487;48.626;12.486;2023-05-29T06:31:12;16.40;98.80
12841;DHT22;6487;48.626;12.486;2023-05-29T06:33:40;16.50;98.30
12841;DHT22;6487;48.626;12.486;2023-05-29T06:36:08;16.70;97.20
12841;DHT22;6487;48.626;12.486;2023-05-29T06:38:38;16.90;96.10
12841;DHT22;6487;48.626;12.486;2023-05-29T06:41:07;17.00;95.60
12841;DHT22;6487;48.626;12.486;2023-05-29T06:43:35;17.10;95.90
12841;DHT22;6487;48.626;12.486;2023-05-29T06:46:03;17.20;95.70
12841;DHT22;6487;48.626;12.486;2023-05-29T06:48:32;17.40;95.40
12841;DHT22;6487;48.626;12.486;2023-05-29T06:51:01;17.50;95.50
12841;DHT22;6487;48.626;12.486;2023-05-29T06:53:35;17.70;95.60
12841;DHT22;6487;48.626;12.486;2023-05-29T06:56:05;17.70;95.40
12841;DHT22;6487;48.626;12.486;2023-05-29T06:58:34;17.80;95.60
12841;DHT22;6487;48.626;12.486;2023-05-29T07:01:02;17.90;94.40
12841;DHT22;6487;48.626;12.486;2023-05-29T07:03:34;18.10;95.40
12841;DHT22;6487;48.626;12.486;2023-05-29T07:06:04;18.20;95.10
12841;DHT22;6487;48.626;12.486;2023-05-29T07:08:34;18.40;94.40
12841;DHT22;6487;48.626;12.486;2023-05-29T07:11:02;18.60;94.20
12841;DHT22;6487;48.626;12.486;2023-05-29T07:13:32;18.70;93.70
12841;DHT22;6487;48.626;12.486;2023-05-29T07:16:00;18.80;93.40
12841;DHT22;6487;48.626;12.486;2023-05-29T07:18:49;19.00;93.60
12841;DHT22;6487;48.626;12.486;2023-05-29T07:21:18;19.00;93.80
12841;DHT22;6487;48.626;12.486;2023-05-29T07:23:47;19.20;93.20
12841;DHT22;6487;48.626;12.486;2023-05-29T07:26:18;19.40;93.00
12841;DHT22;6487;48.626;12.486;2023-05-29T07:28:53;19.50;92.80
12841;DHT22;6487;48.626;12.486;2023-05-29T07:31:22;19.60;91.70
12841;DHT22;6487;48.626;12.486;2023-05-29T07:33:50;19.60;92.10
12841;DHT22;6487;48.626;12.486;2023-05-29T07:36:19;19.70;91.60
12841;DHT22;6487;48.626;12.486;2023-05-29T07:38:50;19.70;90.90
12841;DHT22;6487;48.626;12.486;2023-05-29T07:41:20;19.90;91.30
12841;DHT22;6487;48.626;12.486;2023-05-29T07:43:48;20.10;90.80
12841;DHT22;6487;48.626;12.486;2023-05-29T07:46:26;20.30;90.60
12841;DHT22;6487;48.626;12.486;2023-05-29T07:48:54;20.30;91.10
12841;DHT22;6487;48.626;12.486;2023-05-29T07:51:23;20.40;90.50
12841;DHT22;6487;48.626;12.486;2023-05-29T07:53:51;20.40;90.30
12841;DHT22;6487;48.626;12.486;2023-05-29T07:56:19;20.60;87.60
12841;DHT22;6487;48.626;12.486;2023-05-29T07:58:52;20.70;89.80
12841;DHT22;6487;48.626;12.486;2023-05-29T08:01:23;20.70;87.80
12841;DHT22;6487;48.626;12.486;2023-05-29T08:03:52;20.90;87.50
12841;DHT22;6487;48.626;12.486;2023-05-29T08:06:24;21.20;89.30
12841;DHT22;6487;48.626;12.486;2023-05-29T08:08:56;21.30;87.50
12841;DHT22;6487;48.626;12.486;2023-05-29T08:11:24;21.50;86.50
12841;DHT22;6487;48.626;12.486;2023-05-29T08:13:53;21.70;86.00
12841;DHT22;6487;48.626;12.486;2023-05-29T08:16:28;21.80;85.70
12841;DHT22;6487;48.626;12.486;2023-05-29T08:19:02;22.00;84.70
12841;DHT22;6487;48.626;12.486;2023-05-29T08:21:33;22.20;86.00
12841;DHT22;6487;48.626;12.486;2023-05-29T08:24:02;22.30;83.60
12841;DHT22;6487;48.626;12.486;2023-05-29T08:26:31;22.30;81.50
12841;DHT22;6487;48.626;12.486;2023-05-29T08:29:03;22.40;82.80
12841;DHT22;6487;48.626;12.486;2023-05-29T08:31:35;22.50;81.50
12841;DHT22;6487;48.626;12.486;2023-05-29T08:34:04;22.60;83.90
12841;DHT22;6487;48.626;12.486;2023-05-29T08:36:38;22.70;81.40
12841;DHT22;6487;48.626;12.486;2023-05-29T08:39:08;22.90;82.50
12841;DHT22;6487;48.626;12.486;2023-05-29T08:41:46;22.80;81.10
12841;DHT22;6487;48.626;12.486;2023-05-29T08:44:22;23.00;82.50
12841;DHT22;6487;48.626;12.486;2023-05-29T08:46:54;23.20;79.50
12841;DHT22;6487;48.626;12.486;2023-05-29T08:49:23;23.30;77.50
12841;DHT22;6487;48.626;12.486;2023-05-29T08:52:00;23.40;80.00
12841;DHT22;6487;48.626;12.486;2023-05-29T08:54:31;23.50;81.10
12841;DHT22;6487;48.626;12.486;2023-05-29T08:57:00;23.70;79.60
12841;DHT22;6487;48.626;12.486;2023-05-29T08:59:32;23.80;82.40
12841;DHT22;6487;48.626;12.486;2023-05-29T09:02:02;23.90;81.80
12841;DHT22;6487;48.626;12.486;2023-05-29T09:04:31;24.00;79.40
12841;DHT22;6487;48.626;12.486;2023-05-29T09:07:00;24.10;79.60
12841;DHT22;6487;48.626;12.486;2023-05-29T09:09:30;24.20;79.60
12841;DHT22;6487;48.626;12.486;2023-05-29T09:11:59;24.40;77.30
12841;DHT22;6487;48.626;12.486;2023-05-29T09:14:33;24.20;80.60
12841;DHT22;6487;48.626;12.486;2023-05-29T09:17:04;24.20;78.70
12841;DHT22;6487;48.626;12.486;2023-05-29T09:19:33;24.30;80.00
12841;DHT22;6487;48.626;12.486;2023-05-29T09:22:04;24.20;79.40
12841;DHT22;6487;48.626;12.486;2023-05-29T09:24:35;24.50;80.70
12841;DHT22;6487;48.626;12.486;2023-05-29T09:27:05;24.60;76.30
12841;DHT22;6487;48.626;12.486;2023-05-29T09:29:38;24.70;77.80
12841;DHT22;6487;48.626;12.486;2023-05-29T09:32:08;24.80;75.50
12841;DHT22;6487;48.626;12.486;2023-05-29T09:34:37;25.10;78.00
12841;DHT22;6487;48.626;12.486;2023-05-29T09:37:07;25.10;74.20
12841;DHT22;6487;48.626;12.486;2023-05-29T09:39:46;25.10;75.40
12841;DHT22;6487;48.626;12.486;2023-05-29T09:42:15;25.00;72.10
12841;DHT22;6487;48.626;12.486;2023-05-29T09:44:45;25.20;75.30
12841;DHT22;6487;48.626;12.486;2023-05-29T09:47:18;25.20;75.50
12841;DHT22;6487;48.626;12.486;2023-05-29T09:49:47;25.20;74.10
12841;DHT22;6487;48.626;12.486;2023-05-29T09:52:21;25.30;76.90
12841;DHT22;6487;48.626;12.486;2023-05-29T09:54:50;25.50;69.90
12841;DHT22;6487;48.626;12.486;2023-05-29T09:57:23;25.60;71.40
12841;DHT22;6487;48.626;12.486;2023-05-29T09:59:53;25.70;70.50
12841;DHT22;6487;48.626;12.486;2023-05-29T10:02:24;25.60;70.30
12841;DHT22;6487;48.626;12.486;2023-05-29T10:04:53;25.80;67.10
12841;DHT22;6487;48.626;12.486;2023-05-29T10:07:26;25.90;68.50
12841;DHT22;6487;48.626;12.486;2023-05-29T10:09:59;25.90;67.60
12841;DHT22;6487;48.626;12.486;2023-05-29T10:12:31;26.00;69.60
12841;DHT22;6487;48.626;12.486;2023-05-29T10:15:01;26.10;72.80
12841;DHT22;6487;48.626;12.486;2023-05-29T10:17:34;26.20;69.90
12841;DHT22;6487;48.626;12.486;2023-05-29T10:20:05;26.30;69.60
12841;DHT22;6487;48.626;12.486;2023-05-29T10:22:37;26.00;65.70
12841;DHT22;6487;48.626;12.486;2023-05-29T10:25:09;26.00;68.30
12841;DHT22;6487;48.626;12.486;2023-05-29T10:27:39;26.10;68.40
12841;DHT22;6487;48.626;12.486;2023-05-29T10:30:12;26.30;70.00
12841;DHT22;6487;48.626;12.486;2023-05-29T10:33:00;26.30;67.60
12841;DHT22;6487;48.626;12.486;2023-05-29T10:35:47;26.40;71.40
12841;DHT22;6487;48.626;12.486;2023-05-29T10:38:24;26.40;65.90
12841;DHT22;6487;48.626;12.486;2023-05-29T10:40:53;26.30;66.70
12841;DHT22;6487;48.626;12.486;2023-05-29T10:43:32;26.60;66.70
12841;DHT22;6487;48.626;12.486;2023-05-29T10:46:04;26.60;66.20
12841;DHT22;6487;48.626;12.486;2023-05-29T10:48:41;26.80;64.20
12841;DHT22;6487;48.626;12.486;2023-05-29T10:51:26;26.80;61.60
12841;DHT22;6487;48.626;12.486;2023-05-29T10:53:55;26.90;60.00
12841;DHT22;6487;48.626;12.486;2023-05-29T10:56:30;26.90;62.60
12841;DHT22;6487;48.626;12.486;2023-05-29T10:59:00;26.80;60.40
12841;DHT22;6487;48.626;12.486;2023-05-29T11:01:31;27.00;60.10
12841;DHT22;6487;48.626;12.486;2023-05-29T11:04:29;27.10;61.10
12841;DHT22;6487;48.626;12.486;2023-05-29T11:06:59;27.20;58.90
12841;DHT22;6487;48.626;12.486;2023-05-29T11:09:35;27.20;60.40
12841;DHT22;6487;48.626;12.486;2023-05-29T11:12:14;27.20;57.00
12841;DHT22;6487;48.626;12.486;2023-05-29T11:14:59;27.30;57.60
12841;DHT22;6487;48.626;12.486;2023-05-29T11:17:46;27.30;61.10
12841;DHT22;6487;48.626;12.486;2023-05-29T11:20:28;27.30;58.20
12841;DHT22;6487;48.626;12.486;2023-05-29T11:23:05;27.40;57.90
12841;DHT22;6487;48.626;12.486;2023-05-29T11:25:36;27.40;61.90
12841;DHT22;6487;48.626;12.486;2023-05-29T11:28:05;27.50;62.00
12841;DHT22;6487;48.626;12.486;2023-05-29T11:30:44;27.20;60.80
12841;DHT22;6487;48.626;12.486;2023-05-29T11:33:24;27.50;62.00
12841;DHT22;6487;48.626;12.486;2023-05-29T11:35:59;27.20;58.60
12841;DHT22;6487;48.626;12.486;2023-05-29T11:38:31;27.50;58.00
12841;DHT22;6487;48.626;12.486;2023-05-29T11:41:01;27.60;61.40
12841;DHT22;6487;48.626;12.486;2023-05-29T11:43:31;27.50;59.80
12841;DHT22;6487;48.626;12.486;2023-05-29T11:46:04;27.70;60.90
12841;DHT22;6487;48.626;12.486;2023-05-29T11:48:45;27.80;56.90
12841;DHT22;6487;48.626;12.486;2023-05-29T11:51:15;27.50;60.20
12841;DHT22;6487;48.626;12.486;2023-05-29T11:53:46;27.80;58.30
12841;DHT22;6487;48.626;12.486;2023-05-29T11:56:15;27.60;58.50
12841;DHT22;6487;48.626;12.486;2023-05-29T11:58:43;27.60;57.40
12841;DHT22;6487;48.626;12.486;2023-05-29T12:01:16;27.70;59.40
12841;DHT22;6487;48.626;12.486;2023-05-29T12:03:46;27.60;59.60
12841;DHT22;6487;48.626;12.486;2023-05-29T12:06:15;27.70;58.00
12841;DHT22;6487;48.626;12.486;2023-05-29T12:08:58;27.70;57.00
12841;DHT22;6487;48.626;12.486;2023-05-29T12:11:27;27.80;55.20
12841;DHT22;6487;48.626;12.486;2023-05-29T12:14:02;27.50;56.40
12841;DHT22;6487;48.626;12.486;2023-05-29T12:16:33;27.60;55.30
12841;DHT22;6487;48.626;12.486;2023-05-29T12:19:02;27.60;57.90
12841;DHT22;6487;48.626;12.486;2023-05-29T12:21:32;27.60;57.50
12841;DHT22;6487;48.626;12.486;2023-05-29T12:24:05;27.70;56.40
12841;DHT22;6487;48.626;12.486;2023-05-29T12:26:42;27.60;57.30
12841;DHT22;6487;48.626;12.486;2023-05-29T12:29:10;27.60;55.90
12841;DHT22;6487;48.626;12.486;2023-05-29T12:31:39;27.60;54.20
12841;DHT22;6487;48.626;12.486;2023-05-29T12:34:09;27.60;58.80
12841;DHT22;6487;48.626;12.486;2023-05-29T12:36:41;27.70;59.40
12841;DHT22;6487;48.626;12.486;2023-05-29T12:39:10;27.60;59.40
12841;DHT22;6487;48.626;12.486;2023-05-29T12:41:40;27.50;59.80
12841;DHT22;6487;48.626;12.486;2023-05-29T12:44:08;28.00;60.60
12841;DHT22;6487;48.626;12.486;2023-05-29T12:46:38;28.00;58.20
12841;DHT22;6487;48.626;12.486;2023-05-29T12:49:17;27.90;60.60
12841;DHT22;6487;48.626;12.486;2023-05-29T12:51:48;28.10;59.30
12841;DHT22;6487;48.626;12.486;2023-05-29T12:54:19;28.10;56.60
12841;DHT22;6487;48.626;12.486;2023-05-29T12:56:47;27.80;56.20
12841;DHT22;6487;48.626;12.486;2023-05-29T12:59:17;27.90;56.60
12841;DHT22;6487;48.626;12.486;2023-05-29T13:01:45;27.90;57.10
12841;DHT22;6487;48.626;12.486;2023-05-29T13:04:14;27.80;55.20
12841;DHT22;6487;48.626;12.486;2023-05-29T13:06:43;28.10;61.50
12841;DHT22;6487;48.626;12.486;2023-05-29T13:09:13;27.90;56.90
12841;DHT22;6487;48.626;12.486;2023-05-29T13:11:42;27.80;55.80
12841;DHT22;6487;48.626;12.486;2023-05-29T13:14:10;28.10;56.50
12841;DHT22;6487;48.626;12.486;2023-05-29T13:16:39;27.90;57.80
12841;DHT22;6487;48.626;12.486;2023-05-29T13:19:07;27.90;58.80
12841;DHT22;6487;48.626;12.486;2023-05-29T13:21:35;28.10;57.30
12841;DHT22;6487;48.626;12.486;2023-05-29T13:24:04;28.20;54.40
12841;DHT22;6487;48.626;12.486;2023-05-29T13:26:36;28.20;56.20
12841;DHT22;6487;48.626;12.486;2023-05-29T13:29:04;28.20;57.40
12841;DHT22;6487;48.626;12.486;2023-05-29T13:31:37;28.30;54.80
12841;DHT22;6487;48.626;12.486;2023-05-29T13:34:06;28.10;54.30
12841;DHT22;6487;48.626;12.486;2023-05-29T13:36:34;28.00;57.10
12841;DHT22;6487;48.626;12.486;2023-05-29T13:39:02;27.90;55.10
12841;DHT22;6487;48.626;12.486;2023-05-29T13:41:33;27.90;58.20
12841;DHT22;6487;48.626;12.486;2023-05-29T13:44:03;28.00;55.30
12841;DHT22;6487;48.626;12.486;2023-05-29T13:46:31;27.90;58.30
12841;DHT22;6487;48.626;12.486;2023-05-29T13:49:00;27.90;57.00
12841;DHT22;6487;48.626;12.486;2023-05-29T13:51:28;27.90;59.80
12841;DHT22;6487;48.626;12.486;2023-05-29T13:53:56;27.70;59.20
12841;DHT22;6487;48.626;12.486;2023-05-29T13:56:25;27.90;54.80
12841;DHT22;6487;48.626;12.486;2023-05-29T13:58:53;27.70;57.80
12841;DHT22;6487;48.626;12.486;2023-05-29T14:01:23;27.80;58.90
12841;DHT22;6487;48.626;12.486;2023-05-29T14:03:52;27.90;58.20
12841;DHT22;6487;48.626;12.486;2023-05-29T14:06:20;28.10;58.70
12841;DHT22;6487;48.626;12.486;2023-05-29T14:08:48;28.00;58.40
12841;DHT22;6487;48.626;12.486;2023-05-29T14:11:17;28.10;57.30
12841;DHT22;6487;48.626;12.486;2023-05-29T14:13:45;28.10;55.10
12841;DHT22;6487;48.626;12.486;2023-05-29T14:16:14;28.10;54.80
12841;DHT22;6487;48.626;12.486;2023-05-29T14:18:45;28.20;56.60
12841;DHT22;6487;48.626;12.486;2023-05-29T14:21:15;28.00;56.30
12841;DHT22;6487;48.626;12.486;2023-05-29T14:23:43;28.10;55.80
12841;DHT22;6487;48.626;12.486;2023-05-29T14:26:12;28.10;57.00
12841;DHT22;6487;48.626;12.486;2023-05-29T14:28:40;28.20;56.20
12841;DHT22;6487;48.626;12.486;2023-05-29T14:31:09;27.90;55.90
12841;DHT22;6487;48.626;12.486;2023-05-29T14:33:37;27.80;55.10
12841;DHT22;6487;48.626;12.486;2023-05-29T14:36:07;27.90;56.10
12841;DHT22;6487;48.626;12.486;2023-05-29T14:38:36;27.80;56.90
12841;DHT22;6487;48.626;12.486;2023-05-29T14:41:05;27.80;55.10
12841;DHT22;6487;48.626;12.486;2023-05-29T14:43:37;27.70;55.80
12841;DHT22;6487;48.626;12.486;2023-05-29T14:46:06;27.90;57.00
12841;DHT22;6487;48.626;12.486;2023-05-29T14:48:34;27.70;55.50
12841;DHT22;6487;48.626;12.486;2023-05-29T14:51:03;27.80;55.70
12841;DHT22;6487;48.626;12.486;2023-05-29T14:53:32;27.90;56.90
12841;DHT22;6487;48.626;12.486;2023-05-29T14:56:01;28.10;58.30
12841;DHT22;6487;48.626;12.486;2023-05-29T14:58:29;28.30;58.90
12841;DHT22;6487;48.626;12.486;2023-05-29T15:00:58;28.00;55.10
12841;DHT22;6487;48.626;12.486;2023-05-29T15:03:26;27.90;56.00
12841;DHT22;6487;48.626;12.486;2023-05-29T15:05:55;27.90;56.40
12841;DHT22;6487;48.626;12.486;2023-05-29T15:08:24;28.00;55.50
12841;DHT22;6487;48.626;12.486;2023-05-29T15:10:55;27.90;57.40
12841;DHT22;6487;48.626;12.486;2023-05-29T15:13:24;28.00;57.10
12841;DHT22;6487;48.626;12.486;2023-05-29T15:15:52;27.90;57.80
12841;DHT22;6487;48.626;12.486;2023-05-29T15:18:21;28.00;59.40
12841;DHT22;6487;48.626;12.486;2023-05-29T15:20:49;28.00;58.70
12841;DHT22;6487;48.626;12.486;2023-05-29T15:23:19;27.90;58.60
12841;DHT22;6487;48.626;12.486;2023-05-29T15:25:50;28.00;57.50
12841;DHT22;6487;48.626;12.486;2023-05-29T15:28:20;27.70;58.60
12841;DHT22;6487;48.626;12.486;2023-05-29T15:30:50;27.60;58.30
12841;DHT22;6487;48.626;12.486;2023-05-29T15:33:24;27.60;58.80
12841;DHT22;6487;48.626;12.486;2023-05-29T15:35:56;27.70;59.90
12841;DHT22;6487;48.626;12.486;2023-05-29T15:38:25;27.90;59.00
12841;DHT22;6487;48.626;12.486;2023-05-29T15:40:55;27.80;58.70
12841;DHT22;6487;48.626;12.486;2023-05-29T15:43:34;27.70;58.40
12841;DHT22;6487;48.626;12.486;2023-05-29T15:46:02;27.80;59.00
12841;DHT22;6487;48.626;12.486;2023-05-29T15:48:31;27.80;57.70
12841;DHT22;6487;48.626;12.486;2023-05-29T15:51:00;27.80;57.60